Time;durP1;ratioP1;P1;durP2;ratioP2;P2;SDS_P1;SDS_P2;PMS_P1;PMS_P2;Temp;Humidity;BMP_temperature;BMP_pressure;BME280_temperature;BME280_humidity;BME280_pressure;Samples;Min_cycle;Max_cycle;Signal;HPM_P1;HPM_P2
2021/09/21 00:01:03;;;;;;;2.55;2.10;;;17.60;66.90;;;;;;5095242;28;20097;-72
2021/09/21 00:03:29;;;;;;;4.32;2.17;;;17.60;66.50;;;;;;5095433;28;20044;-71
2021/09/21 00:05:55;;;;;;;3.50;2.25;;;17.60;66.60;;;;;;5095471;28;20040;-71
2021/09/21 00:08:21;;;;;;;3.55;2.13;;;17.60;66.80;;;;;;5095641;28;20327;-72
2021/09/21 00:10:47;;;;;;;3.42;2.10;;;17.60;66.60;;;;;;5095287;28;20036;-71
2021/09/21 00:13:12;;;;;;;3.58;2.45;;;17.60;66.60;;;;;;5096055;28;20123;-71
2021/09/21 00:15:38;;;;;;;4.85;1.95;;;17.50;66.50;;;;;;5095429;28;20048;-71
2021/09/21 00:18:04;;;;;;;3.35;2.20;;;17.50;66.70;;;;;;5094686;28;20127;-72
2021/09/21 00:20:29;;;;;;;3.13;2.35;;;17.50;66.70;;;;;;5078144;28;20035;-71
2021/09/21 00:22:55;;;;;;;2.67;1.88;;;17.50;66.30;;;;;;5095246;28;20078;-71
2021/09/21 00:25:21;;;;;;;3.30;2.03;;;17.50;66.30;;;;;;5094909;28;20046;-72
2021/09/21 00:27:47;;;;;;;2.85;2.05;;;17.50;66.20;;;;;;5095292;28;20044;-71
2021/09/21 00:30:15;;;;;;;5.53;2.08;;;17.50;66.20;;;;;;5095372;28;20461;-71
2021/09/21 00:32:44;;;;;;;3.45;2.30;;;17.50;65.80;;;;;;5095274;28;20115;-71
2021/09/21 00:35:10;;;;;;;4.15;2.40;;;17.40;65.90;;;;;;5095247;28;20040;-71
2021/09/21 00:37:37;;;;;;;3.33;2.55;;;17.40;66.00;;;;;;5094864;28;20040;-71
2021/09/21 00:40:03;;;;;;;2.97;2.40;;;17.50;65.90;;;;;;5094897;28;20036;-71
2021/09/21 00:42:30;;;;;;;3.58;2.63;;;17.40;66.00;;;;;;5094716;28;20039;-72
2021/09/21 00:44:59;;;;;;;3.45;2.50;;;17.40;65.90;;;;;;5094560;28;20036;-71
2021/09/21 00:47:26;;;;;;;3.03;2.33;;;17.40;65.70;;;;;;5076500;28;20128;-72
2021/09/21 00:49:51;;;;;;;3.30;2.33;;;17.40;65.90;;;;;;5095198;28;20048;-71
2021/09/21 00:52:18;;;;;;;3.28;1.90;;;17.40;66.10;;;;;;5095402;28;20350;-71
2021/09/21 00:54:45;;;;;;;2.65;1.83;;;17.40;66.00;;;;;;5095094;28;20070;-71
2021/09/21 00:57:12;;;;;;;3.03;2.40;;;17.40;66.20;;;;;;5095593;28;20087;-71
2021/09/21 00:59:38;;;;;;;3.53;2.50;;;17.40;66.00;;;;;;5077388;28;20098;-71
2021/09/21 01:02:04;;;;;;;3.20;2.28;;;17.40;66.10;;;;;;5094862;28;20036;-72
2021/09/21 01:04:30;;;;;;;2.75;2.20;;;17.40;66.10;;;;;;5076580;28;20039;-71
2021/09/21 01:06:55;;;;;;;3.17;2.25;;;17.40;65.80;;;;;;5094304;28;20028;-71
2021/09/21 01:09:23;;;;;;;3.15;2.00;;;17.40;65.90;;;;;;5095974;28;20416;-71
2021/09/21 01:11:54;;;;;;;4.43;2.40;;;17.40;65.90;;;;;;5098654;28;20044;-72
2021/09/21 01:14:21;;;;;;;4.85;2.40;;;17.40;66.00;;;;;;5098479;28;20124;-71
2021/09/21 01:16:48;;;;;;;3.70;2.63;;;17.40;66.00;;;;;;5098107;28;20107;-71
2021/09/21 01:19:15;;;;;;;3.47;2.33;;;17.30;65.80;;;;;;5098929;28;20040;-71
2021/09/21 01:21:41;;;;;;;3.10;2.47;;;17.40;65.80;;;;;;5098205;28;20066;-71
2021/09/21 01:24:08;;;;;;;3.97;2.60;;;17.30;65.80;;;;;;5098705;28;20047;-71
2021/09/21 01:26:34;;;;;;;4.70;3.08;;;17.30;65.60;;;;;;5098480;28;20040;-71
2021/09/21 01:29:00;;;;;;;5.28;2.40;;;17.30;65.60;;;;;;5098360;28;20036;-71
2021/09/21 01:31:26;;;;;;;3.25;2.25;;;17.30;65.60;;;;;;5098203;28;20051;-71
2021/09/21 01:33:53;;;;;;;4.47;3.00;;;17.30;65.70;;;;;;5097968;28;20044;-72
2021/09/21 01:36:23;;;;;;;3.90;2.72;;;17.30;65.40;;;;;;5098045;28;20035;-71
2021/09/21 01:38:49;;;;;;;5.72;2.75;;;17.30;65.60;;;;;;5098062;28;20098;-71
2021/09/21 01:41:15;;;;;;;4.32;2.72;;;17.30;65.30;;;;;;5098016;28;20043;-71
2021/09/21 01:43:43;;;;;;;4.00;2.45;;;17.30;65.60;;;;;;5097552;28;20409;-71
2021/09/21 01:46:10;;;;;;;3.65;2.50;;;17.30;65.60;;;;;;5097789;28;20108;-72
2021/09/21 01:48:35;;;;;;;3.90;2.75;;;17.30;65.40;;;;;;5097690;28;20051;-71
2021/09/21 01:51:07;;;;;;;7.47;3.05;;;17.30;65.50;;;;;;5097884;28;20036;-72
2021/09/21 01:58:46;;;;;;;4.10;2.80;;;17.30;65.50;;;;;;5097698;28;20063;-71
2021/09/21 02:01:16;;;;;;;5.43;3.25;;;17.20;65.30;;;;;;5097756;28;20040;-72
2021/09/21 02:03:42;;;;;;;4.35;3.13;;;17.20;65.40;;;;;;5097260;28;20119;-72
2021/09/21 02:06:09;;;;;;;3.22;2.45;;;17.20;65.50;;;;;;5097674;28;20047;-71
2021/09/21 02:08:34;;;;;;;4.30;3.35;;;17.20;65.60;;;;;;5079680;28;20047;-71
2021/09/21 02:11:00;;;;;;;6.07;3.22;;;17.20;65.40;;;;;;5098097;28;20092;-71
2021/09/21 02:13:26;;;;;;;5.35;3.40;;;17.20;65.50;;;;;;5097980;28;20047;-71
2021/09/21 02:15:52;;;;;;;5.55;2.83;;;17.20;65.70;;;;;;5097666;28;20381;-72
2021/09/21 02:18:18;;;;;;;4.43;3.00;;;17.20;65.80;;;;;;5097406;28;20420;-71
2021/09/21 02:20:44;;;;;;;4.80;3.00;;;17.20;65.90;;;;;;5096304;28;20043;-71
2021/09/21 02:23:10;;;;;;;5.55;2.97;;;17.20;65.70;;;;;;5097948;28;20040;-71
2021/09/21 02:25:36;;;;;;;3.53;2.75;;;17.20;65.70;;;;;;5096696;28;20072;-72
2021/09/21 02:28:02;;;;;;;3.72;2.85;;;17.20;65.90;;;;;;5096838;28;20058;-71
2021/09/21 02:30:27;;;;;;;5.90;3.00;;;17.20;65.60;;;;;;5096587;28;20035;-71
2021/09/21 02:32:53;;;;;;;4.68;3.38;;;17.20;65.60;;;;;;5096898;28;20050;-71
2021/09/21 02:35:19;;;;;;;5.43;2.70;;;17.20;65.60;;;;;;5097103;28;20040;-71
2021/09/21 02:37:46;;;;;;;4.13;2.97;;;17.20;65.70;;;;;;5097589;28;20040;-72
2021/09/21 02:40:12;;;;;;;4.18;2.65;;;17.20;65.90;;;;;;5096977;28;20069;-72
2021/09/21 02:42:39;;;;;;;3.28;2.75;;;17.20;66.00;;;;;;5097156;28;20048;-71
2021/09/21 02:45:05;;;;;;;3.25;2.83;;;17.20;66.00;;;;;;5096375;28;20044;-71
2021/09/21 02:47:31;;;;;;;3.65;3.10;;;17.20;65.90;;;;;;5096438;28;20058;-72
2021/09/21 02:49:56;;;;;;;4.45;3.00;;;17.20;66.00;;;;;;5096384;28;20347;-72
2021/09/21 02:52:22;;;;;;;5.57;3.33;;;17.10;65.90;;;;;;5096692;28;20032;-72
2021/09/21 02:54:48;;;;;;;4.07;3.00;;;17.10;65.90;;;;;;5078642;28;20032;-71
2021/09/21 02:57:13;;;;;;;4.45;2.88;;;17.10;65.90;;;;;;5095699;28;20043;-72
2021/09/21 02:59:39;;;;;;;5.57;3.50;;;17.10;66.00;;;;;;5096038;28;20338;-72
2021/09/21 03:02:05;;;;;;;4.38;3.60;;;17.10;65.80;;;;;;5096117;28;20040;-71
2021/09/21 03:04:35;;;;;;;4.80;3.13;;;17.10;65.60;;;;;;5078513;28;20047;-71
2021/09/21 03:07:29;;;;;;;4.25;3.10;;;17.10;65.70;;;;;;5096529;28;20044;-72
2021/09/21 03:09:55;;;;;;;4.00;3.08;;;17.10;65.90;;;;;;5094828;28;20050;-71
2021/09/21 03:12:43;;;;;;;4.35;2.67;;;17.10;66.00;;;;;;5095791;28;20044;-71
2021/09/21 03:17:53;;;;;;;4.18;2.58;;;17.10;65.70;;;;;;5075808;28;20368;-72
2021/09/21 03:20:19;;;;;;;4.65;3.25;;;17.10;65.90;;;;;;5075717;28;20050;-71
2021/09/21 03:22:45;;;;;;;3.10;2.80;;;17.10;65.90;;;;;;5076184;28;20040;-71
2021/09/21 03:25:12;;;;;;;3.30;2.97;;;17.10;66.00;;;;;;5075996;28;20116;-72
2021/09/21 03:27:38;;;;;;;4.65;2.92;;;17.10;66.00;;;;;;5076412;28;20040;-71
2021/09/21 03:30:04;;;;;;;3.40;2.88;;;17.10;66.00;;;;;;5075969;28;20093;-71
2021/09/21 03:32:31;;;;;;;5.45;3.17;;;17.00;65.90;;;;;;5057891;28;20444;-72
2021/09/21 03:34:57;;;;;;;4.47;3.25;;;17.10;66.00;;;;;;5075445;28;20074;-72
2021/09/21 03:37:22;;;;;;;4.05;2.97;;;17.00;65.90;;;;;;5087962;28;20119;-71
2021/09/21 03:39:48;;;;;;;5.22;3.17;;;17.00;66.10;;;;;;5095707;28;20043;-72
2021/09/21 03:42:14;;;;;;;6.07;3.70;;;17.10;66.10;;;;;;5096141;28;20051;-71
2021/09/21 03:44:39;;;;;;;4.53;3.33;;;17.10;66.00;;;;;;5095685;28;20153;-72
2021/09/21 03:47:05;;;;;;;4.15;3.60;;;17.10;66.00;;;;;;5095192;28;20083;-71
2021/09/21 03:49:31;;;;;;;4.47;2.95;;;17.10;65.70;;;;;;5095499;28;20059;-71
2021/09/21 03:51:57;;;;;;;4.25;3.03;;;17.10;66.00;;;;;;5095432;28;20087;-72
2021/09/21 03:54:23;;;;;;;4.43;3.25;;;17.00;65.80;;;;;;5095680;28;20032;-71
2021/09/21 03:56:49;;;;;;;5.55;3.15;;;17.00;65.90;;;;;;5095497;28;20471;-71
2021/09/21 03:59:15;;;;;;;4.03;3.25;;;17.00;65.80;;;;;;5096208;28;20055;-72
2021/09/21 04:01:41;;;;;;;4.05;2.90;;;17.00;65.60;;;;;;5094506;28;20032;-72
2021/09/21 04:04:07;;;;;;;4.85;3.05;;;17.00;65.60;;;;;;5095384;28;20115;-72
2021/09/21 04:06:34;;;;;;;4.13;3.20;;;17.00;65.50;;;;;;5095727;28;20370;-72
2021/09/21 04:08:59;;;;;;;3.88;3.15;;;17.00;65.60;;;;;;5095291;28;20048;-71
2021/09/21 04:11:25;;;;;;;4.30;2.85;;;17.00;65.30;;;;;;5095552;28;20102;-71
2021/09/21 04:13:51;;;;;;;5.03;3.20;;;16.90;65.50;;;;;;5095603;28;20354;-71
2021/09/21 04:16:18;;;;;;;4.32;3.00;;;17.00;65.40;;;;;;5077656;28;20044;-71
2021/09/21 04:18:44;;;;;;;4.38;2.75;;;17.00;65.20;;;;;;5095058;28;20043;-71
2021/09/21 04:21:09;;;;;;;3.55;2.47;;;17.00;65.40;;;;;;5094939;28;20047;-72
2021/09/21 04:23:38;;;;;;;5.22;3.13;;;16.90;65.50;;;;;;5095337;28;20036;-72
2021/09/21 04:26:07;;;;;;;5.72;3.15;;;16.80;64.90;;;;;;5095155;28;20446;-71
2021/09/21 04:28:33;;;;;;;4.07;2.78;;;16.80;65.10;;;;;;5095280;28;20523;-72
2021/09/21 04:31:08;;;;;;;4.70;2.72;;;16.90;65.20;;;;;;5095075;28;20127;-72
2021/09/21 04:33:35;;;;;;;4.35;3.03;;;16.90;65.30;;;;;;5094729;28;20032;-72
2021/09/21 04:36:06;;;;;;;3.10;2.60;;;16.90;65.30;;;;;;5095324;28;20036;-71
2021/09/21 04:38:32;;;;;;;5.13;2.65;;;16.90;65.40;;;;;;5095152;28;20105;-72
2021/09/21 04:40:58;;;;;;;3.58;2.60;;;16.90;65.00;;;;;;5094933;28;20036;-77
2021/09/21 04:43:24;;;;;;;3.45;2.35;;;16.90;65.20;;;;;;5095050;28;20040;-72
2021/09/21 04:45:49;;;;;;;7.20;2.65;;;16.90;65.60;;;;;;5098151;28;20054;-71
2021/09/21 04:48:15;;;;;;;4.38;2.95;;;16.80;65.50;;;;;;5080850;28;20048;-72
2021/09/21 04:50:41;;;;;;;5.05;2.75;;;16.80;65.40;;;;;;5099948;28;20089;-71
2021/09/21 04:53:07;;;;;;;3.35;2.78;;;16.90;65.20;;;;;;5098766;28;20040;-74
2021/09/21 04:55:33;;;;;;;3.78;3.00;;;16.90;65.40;;;;;;5098914;28;20044;-71
2021/09/21 04:57:58;;;;;;;4.35;2.42;;;16.80;65.00;;;;;;5080954;28;20362;-76
2021/09/21 05:00:24;;;;;;;4.68;3.40;;;16.80;65.20;;;;;;5063730;28;20036;-71
2021/09/21 05:02:50;;;;;;;5.25;4.28;;;16.90;65.90;;;;;;5098310;28;20036;-71
2021/09/21 05:05:16;;;;;;;4.85;4.30;;;17.00;63.80;;;;;;5098857;28;20466;-72
2021/09/21 05:07:42;;;;;;;6.40;5.20;;;17.00;62.70;;;;;;5098085;28;20108;-71
2021/09/21 05:10:09;;;;;;;5.35;4.45;;;17.00;61.50;;;;;;5096128;28;20101;-72
2021/09/21 05:12:35;;;;;;;5.82;5.13;;;17.00;61.80;;;;;;5086945;28;20036;-73
2021/09/21 05:15:00;;;;;;;9.02;5.05;;;17.00;61.40;;;;;;5088591;28;20047;-74
2021/09/21 05:17:26;;;;;;;6.03;4.30;;;16.90;61.40;;;;;;5098863;28;20054;-73
2021/09/21 05:19:52;;;;;;;4.55;3.90;;;16.80;62.20;;;;;;5098533;28;20044;-74
2021/09/21 05:22:18;;;;;;;5.50;4.50;;;16.90;62.80;;;;;;5097910;28;20450;-70
2021/09/21 05:24:44;;;;;;;4.25;3.85;;;16.90;63.00;;;;;;5097787;28;20051;-74
2021/09/21 05:27:12;;;;;;;6.35;4.18;;;17.00;63.30;;;;;;5098482;28;20327;-79
2021/09/21 05:29:38;;;;;;;7.18;4.07;;;17.00;63.50;;;;;;5098033;28;20423;-73
2021/09/21 05:32:04;;;;;;;10.57;4.28;;;17.00;63.50;;;;;;5098117;28;20073;-72
2021/09/21 05:34:30;;;;;;;5.25;3.60;;;17.10;63.50;;;;;;5098248;28;20420;-73
2021/09/21 05:36:55;;;;;;;15.02;4.25;;;17.10;63.90;;;;;;5097885;28;20073;-73
2021/09/21 05:39:21;;;;;;;20.90;4.35;;;17.10;64.60;;;;;;5098428;28;20043;-74
2021/09/21 05:41:47;;;;;;;10.70;3.40;;;17.10;64.90;;;;;;5080041;28;20443;-73
2021/09/21 05:44:12;;;;;;;6.88;3.40;;;17.20;65.30;;;;;;5097926;28;20043;-74
2021/09/21 05:46:38;;;;;;;10.40;3.08;;;17.30;65.60;;;;;;5097201;28;20063;-75
2021/09/21 05:49:04;;;;;;;7.30;2.90;;;17.50;65.80;;;;;;5097997;28;20048;-75
2021/09/21 05:51:30;;;;;;;9.02;2.45;;;17.60;65.70;;;;;;5080406;28;20044;-72
2021/09/21 05:53:56;;;;;;;12.77;2.30;;;17.80;65.70;;;;;;5097354;28;20478;-73
2021/09/21 05:56:23;;;;;;;6.05;2.53;;;17.90;65.60;;;;;;5096683;28;20046;-76
2021/09/21 05:58:49;;;;;;;9.07;2.38;;;18.00;65.40;;;;;;5097566;28;20040;-73
2021/09/21 06:01:15;;;;;;;8.68;2.60;;;18.10;65.40;;;;;;5097048;28;20513;-73
2021/09/21 06:03:41;;;;;;;6.30;2.33;;;18.20;65.40;;;;;;5097006;28;20075;-73
2021/09/21 06:06:06;;;;;;;7.18;2.08;;;18.30;65.50;;;;;;5079788;28;20123;-70
2021/09/21 06:08:32;;;;;;;10.60;2.10;;;18.30;65.60;;;;;;5080037;28;20096;-72
2021/09/21 06:10:58;;;;;;;6.95;1.70;;;18.30;65.60;;;;;;5097416;28;20046;-79
2021/09/21 06:13:24;;;;;;;9.02;2.55;;;18.30;65.60;;;;;;5096861;28;20040;-68
2021/09/21 06:15:50;;;;;;;11.07;2.92;;;18.40;65.60;;;;;;5097376;28;20055;-71
2021/09/21 06:18:17;;;;;;;7.38;2.53;;;18.40;65.10;;;;;;5062270;28;20040;-73
2021/09/21 06:20:44;;;;;;;11.43;2.85;;;18.30;65.00;;;;;;5097043;28;20093;-73
2021/09/21 06:23:10;;;;;;;4.78;2.15;;;18.30;65.10;;;;;;5079187;28;20031;-74
2021/09/21 06:25:37;;;;;;;6.70;2.80;;;18.30;65.20;;;;;;5097361;28;20024;-73
2021/09/21 06:28:03;;;;;;;8.38;2.25;;;18.30;65.40;;;;;;5096757;28;20043;-73
2021/09/21 06:30:29;;;;;;;11.23;2.40;;;18.30;65.60;;;;;;5096608;28;20463;-72
2021/09/21 06:32:55;;;;;;;12.75;2.35;;;18.30;65.90;;;;;;5078892;28;20040;-82
2021/09/21 06:35:21;;;;;;;6.10;2.80;;;18.20;65.50;;;;;;5062779;28;20082;-74
2021/09/21 06:37:48;;;;;;;6.60;3.08;;;18.20;63.50;;;;;;5061987;28;20083;-74
2021/09/21 06:40:15;;;;;;;3.72;2.85;;;17.90;62.60;;;;;;5078774;28;20108;-76
2021/09/21 06:42:42;;;;;;;7.93;3.13;;;17.60;63.10;;;;;;5060764;28;20044;-73
2021/09/21 06:45:10;;;;;;;6.13;2.90;;;17.50;64.30;;;;;;5095854;28;20051;-73
2021/09/21 06:47:36;;;;;;;6.88;3.10;;;17.30;63.60;;;;;;5076328;28;20044;-73
2021/09/21 06:50:03;;;;;;;5.38;2.58;;;17.10;64.00;;;;;;5083074;28;20035;-72
2021/09/21 06:52:29;;;;;;;10.15;3.03;;;17.10;64.20;;;;;;5078742;28;20040;-74
2021/09/21 06:54:56;;;;;;;5.35;3.47;;;17.20;65.60;;;;;;5078870;28;20098;-74
2021/09/21 06:57:22;;;;;;;5.80;4.03;;;17.40;64.80;;;;;;5096339;28;20046;-72
2021/09/21 06:59:48;;;;;;;6.93;3.72;;;17.40;63.90;;;;;;5078523;28;20105;-73
2021/09/21 07:02:14;;;;;;;5.85;4.10;;;17.50;63.20;;;;;;5096319;28;20052;-76
2021/09/21 07:04:40;;;;;;;9.55;4.25;;;17.40;63.00;;;;;;5089860;28;20050;-72
2021/09/21 07:07:06;;;;;;;6.78;4.05;;;17.50;62.80;;;;;;5071751;28;20044;-73
2021/09/21 07:09:32;;;;;;;4.75;3.50;;;17.50;62.60;;;;;;5095318;28;20089;-75
2021/09/21 07:12:04;;;;;;;17.55;4.53;;;17.50;62.20;;;;;;5094323;28;20039;-75
2021/09/21 07:14:31;;;;;;;4.82;3.78;;;17.50;63.10;;;;;;5095215;28;20351;-73
2021/09/21 07:17:00;;;;;;;7.70;3.60;;;17.60;62.50;;;;;;5095026;28;20086;-74
2021/09/21 07:19:27;;;;;;;7.47;3.92;;;17.50;62.20;;;;;;5095209;28;20044;-75
2021/09/21 07:21:57;;;;;;;4.80;3.38;;;17.50;62.10;;;;;;5095469;28;20428;-74
2021/09/21 07:24:23;;;;;;;6.13;3.97;;;17.50;62.10;;;;;;5089254;28;20040;-74
2021/09/21 07:26:50;;;;;;;7.05;4.13;;;17.50;62.10;;;;;;5095576;28;20052;-74
2021/09/21 07:29:17;;;;;;;6.55;4.05;;;17.60;62.20;;;;;;5095848;28;20121;-75
2021/09/21 07:31:44;;;;;;;7.65;3.53;;;17.50;62.60;;;;;;5095897;28;20047;-74
2021/09/21 07:34:10;;;;;;;5.32;3.17;;;17.50;63.10;;;;;;5095824;28;20051;-74
2021/09/21 07:36:36;;;;;;;10.15;3.65;;;17.50;63.30;;;;;;5095306;28;20434;-73
2021/09/21 07:39:03;;;;;;;5.50;3.20;;;17.60;63.80;;;;;;5095960;28;20335;-69
2021/09/21 07:41:29;;;;;;;5.43;3.53;;;17.70;64.00;;;;;;5095960;28;20047;-72
2021/09/21 07:43:54;;;;;;;6.45;3.65;;;17.70;64.10;;;;;;5095701;28;20048;-75
2021/09/21 07:46:23;;;;;;;6.45;3.45;;;17.70;64.00;;;;;;5095668;28;20088;-80
2021/09/21 07:48:49;;;;;;;5.78;3.33;;;17.70;64.60;;;;;;5095566;28;20070;-77
2021/09/21 07:51:14;;;;;;;6.38;4.40;;;17.80;64.60;;;;;;5077443;28;20044;-75
2021/09/21 07:53:40;;;;;;;12.15;4.82;;;17.80;64.40;;;;;;5077696;28;20040;-74
2021/09/21 07:56:14;;;;;;;15.57;4.40;;;17.80;64.20;;;;;;5077952;28;20091;-73
2021/09/21 07:58:45;;;;;;;7.95;4.00;;;17.80;64.00;;;;;;5086073;28;20039;-71
2021/09/21 08:01:14;;;;;;;7.72;4.15;;;17.80;63.90;;;;;;5075863;28;20036;-71
2021/09/21 08:03:40;;;;;;;5.53;3.55;;;17.80;63.70;;;;;;5085407;28;20436;-71
2021/09/21 08:06:06;;;;;;;7.90;3.17;;;17.80;63.60;;;;;;5095134;28;20074;-72
2021/09/21 08:08:32;;;;;;;10.75;3.55;;;17.80;63.50;;;;;;5091529;28;20378;-73
2021/09/21 08:11:01;;;;;;;7.15;4.07;;;17.80;63.60;;;;;;5095120;28;20043;-75
2021/09/21 08:13:28;;;;;;;6.68;3.80;;;17.90;63.70;;;;;;5077520;28;20051;-69
2021/09/21 08:15:54;;;;;;;4.28;3.03;;;17.90;64.00;;;;;;5077565;28;20128;-71
2021/09/21 08:18:20;;;;;;;6.20;3.38;;;17.90;63.90;;;;;;5094799;28;20127;-71
2021/09/21 08:20:45;;;;;;;6.32;4.22;;;17.90;63.80;;;;;;5094627;28;20036;-71
2021/09/21 08:23:11;;;;;;;8.90;3.88;;;17.90;64.50;;;;;;5077442;28;20036;-70
2021/09/21 08:25:37;;;;;;;13.90;4.18;;;17.90;64.70;;;;;;5095219;28;20040;-71
2021/09/21 08:28:03;;;;;;;10.25;3.75;;;18.00;64.60;;;;;;5073247;28;20116;-75
2021/09/21 08:30:30;;;;;;;8.88;3.58;;;18.00;65.10;;;;;;5074972;28;20059;-71
2021/09/21 08:32:56;;;;;;;8.68;3.72;;;18.00;65.80;;;;;;5084902;28;20082;-74
2021/09/21 08:35:21;;;;;;;15.05;6.38;;;18.00;65.70;;;;;;5094813;28;20050;-74
2021/09/21 08:37:50;;;;;;;8.68;4.22;;;18.10;65.80;;;;;;5076956;28;20039;-84
2021/09/21 08:40:16;;;;;;;10.27;5.53;;;18.00;65.80;;;;;;5094831;28;20052;-75
2021/09/21 08:42:41;;;;;;;18.92;13.60;;;18.10;65.70;;;;;;5094851;28;20054;-76
2021/09/21 08:45:08;;;;;;;14.95;8.75;;;18.10;66.20;;;;;;5094348;28;20039;-74
2021/09/21 08:47:35;;;;;;;12.82;7.10;;;18.10;66.80;;;;;;5094303;28;20092;-74
2021/09/21 08:50:03;;;;;;;15.45;7.00;;;18.20;66.70;;;;;;5073916;28;20059;-73
2021/09/21 08:52:29;;;;;;;15.15;5.85;;;18.20;66.60;;;;;;5075386;28;20044;-74
2021/09/21 08:54:55;;;;;;;11.85;4.88;;;18.20;66.50;;;;;;5076498;28;20067;-75
2021/09/21 08:57:21;;;;;;;10.35;4.72;;;18.20;66.30;;;;;;5077219;28;20113;-74
2021/09/21 08:59:52;;;;;;;11.18;4.60;;;18.20;66.30;;;;;;5077035;28;20040;-73
2021/09/21 09:02:18;;;;;;;7.63;4.68;;;18.20;66.00;;;;;;5076826;28;20051;-74
2021/09/21 09:04:59;;;;;;;9.95;4.05;;;18.30;65.90;;;;;;5094489;28;20379;-74
2021/09/21 09:07:35;;;;;;;11.18;5.05;;;18.30;65.20;;;;;;5076669;28;20044;-78
2021/09/21 09:10:05;;;;;;;6.63;4.13;;;18.30;64.90;;;;;;5094753;28;20114;-76
2021/09/21 09:12:33;;;;;;;11.27;4.63;;;18.30;64.30;;;;;;5073647;28;20131;-79
2021/09/21 09:15:11;;;;;;;5.47;3.88;;;18.40;65.00;;;;;;5076542;28;20507;-78
2021/09/21 09:17:38;;;;;;;9.43;3.70;;;18.30;64.90;;;;;;5094247;28;20044;-76
2021/09/21 09:20:06;;;;;;;8.90;4.10;;;18.30;64.20;;;;;;5073090;28;20072;-77
2021/09/21 09:22:31;;;;;;;4.25;3.28;;;18.40;63.90;;;;;;5086876;28;20048;-73
2021/09/21 09:25:02;;;;;;;7.63;3.22;;;18.30;64.10;;;;;;5094086;28;20324;-72
2021/09/21 09:27:47;;;;;;;4.68;2.72;;;18.20;64.20;;;;;;5093722;28;20526;-72
2021/09/21 09:30:24;;;;;;;5.13;2.72;;;18.20;64.40;;;;;;5075296;28;20435;-73
2021/09/21 09:32:57;;;;;;;5.78;2.53;;;18.10;64.50;;;;;;5096097;28;20486;-72
2021/09/21 09:35:35;;;;;;;6.20;2.80;;;18.10;64.80;;;;;;5098325;28;20043;-72
2021/09/21 09:38:05;;;;;;;6.45;3.08;;;18.10;64.70;;;;;;5078011;28;20123;-74
2021/09/21 09:41:04;;;;;;;6.03;2.97;;;18.10;65.10;;;;;;5097473;28;20036;-74
2021/09/21 09:43:30;;;;;;;5.82;2.88;;;18.20;64.90;;;;;;5062559;28;20117;-72
2021/09/21 09:45:58;;;;;;;8.68;2.92;;;18.20;65.20;;;;;;5074348;28;20447;-72
2021/09/21 09:48:26;;;;;;;5.00;2.38;;;18.20;65.20;;;;;;5087963;28;20116;-73
2021/09/21 09:50:56;;;;;;;4.07;2.47;;;18.20;65.20;;;;;;5080400;28;20044;-72
2021/09/21 09:53:23;;;;;;;6.85;2.72;;;18.20;65.00;;;;;;5095364;28;20031;-73
2021/09/21 09:55:55;;;;;;;5.28;2.55;;;18.20;64.90;;;;;;5072102;28;20040;-72
2021/09/21 09:58:22;;;;;;;6.00;2.50;;;18.10;65.00;;;;;;5092709;28;20404;-73
2021/09/21 10:00:49;;;;;;;5.93;2.42;;;18.00;65.20;;;;;;5096211;28;20036;-72
2021/09/21 10:03:15;;;;;;;4.05;2.50;;;18.00;65.30;;;;;;5075994;28;20098;-73
2021/09/21 10:05:42;;;;;;;3.75;2.28;;;18.00;65.40;;;;;;5059234;28;20033;-72
2021/09/21 10:08:09;;;;;;;5.75;2.35;;;17.90;65.60;;;;;;5088747;28;20071;-73
2021/09/21 10:10:37;;;;;;;5.65;2.60;;;17.90;65.80;;;;;;5090217;28;20040;-73
2021/09/21 10:13:06;;;;;;;2.83;2.10;;;18.00;66.00;;;;;;5096925;28;20036;-72
2021/09/21 10:15:33;;;;;;;7.40;1.92;;;17.90;66.00;;;;;;5096507;28;20076;-73
2021/09/21 10:17:59;;;;;;;7.97;2.70;;;17.90;66.70;;;;;;5096558;28;20044;-74
2021/09/21 10:20:37;;;;;;;7.78;2.20;;;18.00;67.20;;;;;;5094030;28;20499;-73
2021/09/21 10:23:10;;;;;;;7.05;2.00;;;18.10;67.90;;;;;;5079250;28;20358;-73
2021/09/21 10:25:39;;;;;;;7.25;2.40;;;18.20;68.00;;;;;;5096570;28;20076;-72
2021/09/21 10:28:18;;;;;;;7.35;2.22;;;18.20;67.80;;;;;;5097433;28;20163;-77
2021/09/21 10:30:54;;;;;;;13.15;2.22;;;18.30;67.90;;;;;;5079818;28;20044;-73
2021/09/21 10:33:23;;;;;;;9.65;2.95;;;18.30;67.70;;;;;;5097153;28;20040;-74
2021/09/21 10:35:49;;;;;;;5.50;2.55;;;18.30;66.70;;;;;;5094731;28;20147;-74
2021/09/21 10:38:17;;;;;;;9.98;2.50;;;18.20;66.50;;;;;;5075637;28;20432;-70
2021/09/21 10:40:50;;;;;;;6.75;2.40;;;18.10;66.40;;;;;;5084513;28;20149;-71
2021/09/21 10:43:34;;;;;;;7.25;2.38;;;18.00;66.60;;;;;;5077657;28;20087;-73
2021/09/21 10:46:10;;;;;;;7.78;1.90;;;18.00;67.00;;;;;;5064931;28;20059;-75
2021/09/21 10:48:39;;;;;;;6.30;2.22;;;17.90;67.10;;;;;;5078434;28;20125;-76
2021/09/21 10:51:07;;;;;;;5.20;2.53;;;17.90;67.70;;;;;;5078024;28;20455;-73
2021/09/21 10:53:33;;;;;;;7.38;2.15;;;17.90;67.70;;;;;;5078653;28;20052;-72
2021/09/21 10:56:07;;;;;;;7.47;2.13;;;18.00;68.40;;;;;;5062378;28;20048;-73
2021/09/21 10:58:33;;;;;;;5.18;1.90;;;18.10;68.60;;;;;;5096670;28;20105;-72
2021/09/21 11:00:59;;;;;;;5.07;1.85;;;18.10;67.80;;;;;;5078057;28;20498;-74
2021/09/21 11:03:27;;;;;;;10.15;2.53;;;18.10;68.00;;;;;;5078737;28;20048;-74
2021/09/21 11:05:59;;;;;;;10.02;2.20;;;18.20;68.10;;;;;;5096004;28;20047;-73
2021/09/21 11:08:35;;;;;;;5.27;2.00;;;18.20;67.70;;;;;;5096223;28;20105;-73
2021/09/21 11:11:04;;;;;;;5.55;2.28;;;18.20;67.70;;;;;;5078443;28;20127;-74
2021/09/21 11:13:40;;;;;;;5.72;2.25;;;18.10;68.00;;;;;;5078060;28;20044;-74
2021/09/21 11:16:15;;;;;;;4.60;1.90;;;18.20;68.10;;;;;;5096004;28;20048;-74
2021/09/21 11:18:44;;;;;;;8.10;2.22;;;18.10;68.10;;;;;;5078558;28;20051;-76
2021/09/21 11:21:11;;;;;;;3.75;2.10;;;18.10;68.20;;;;;;5095517;28;20076;-72
2021/09/21 11:23:40;;;;;;;4.80;1.90;;;18.10;68.70;;;;;;5096122;28;20351;-73
2021/09/21 11:26:11;;;;;;;7.47;2.25;;;18.20;68.80;;;;;;5095871;28;20051;-73
2021/09/21 11:28:42;;;;;;;4.70;2.00;;;18.10;68.90;;;;;;5095834;28;20043;-73
2021/09/21 11:31:08;;;;;;;7.43;1.83;;;18.10;68.80;;;;;;5096033;28;20351;-73
2021/09/21 11:33:37;;;;;;;4.38;2.05;;;18.10;69.40;;;;;;5077227;28;20048;-75
2021/09/21 11:36:09;;;;;;;8.57;1.80;;;18.10;69.40;;;;;;5095831;28;20129;-74
2021/09/21 11:38:41;;;;;;;5.65;2.33;;;18.10;69.40;;;;;;5077627;28;20346;-74
2021/09/21 11:41:08;;;;;;;5.40;2.42;;;18.20;69.90;;;;;;5078506;28;20052;-73
2021/09/21 11:43:34;;;;;;;4.93;2.10;;;18.20;70.00;;;;;;5077702;28;20078;-75
2021/09/21 11:46:00;;;;;;;7.10;2.33;;;18.20;70.10;;;;;;5074645;28;20189;-72
2021/09/21 11:48:27;;;;;;;3.05;1.90;;;18.20;70.20;;;;;;5075110;28;20447;-73
2021/09/21 11:50:53;;;;;;;6.20;2.50;;;18.30;70.30;;;;;;5073876;28;20127;-73
2021/09/21 11:53:22;;;;;;;3.17;1.83;;;18.30;70.40;;;;;;5073414;28;20194;-73
2021/09/21 11:55:50;;;;;;;6.72;2.38;;;18.30;70.20;;;;;;5075522;28;20048;-72
2021/09/21 11:58:17;;;;;;;7.72;3.03;;;18.30;70.00;;;;;;5075480;28;20321;-71
2021/09/21 12:00:50;;;;;;;14.35;3.47;;;18.40;70.00;;;;;;5075159;28;20037;-80
2021/09/21 12:03:22;;;;;;;11.63;3.00;;;18.50;70.20;;;;;;5074229;28;20436;-77
2021/09/21 12:05:54;;;;;;;7.90;3.03;;;18.60;70.10;;;;;;5075371;28;20041;-76
2021/09/21 12:08:26;;;;;;;114.53;71.47;;;18.60;69.90;;;;;;5074049;28;20052;-74
2021/09/21 12:11:10;;;;;;;139.95;90.72;;;18.50;70.40;;;;;;5073739;28;20040;-76
2021/09/21 12:13:36;;;;;;;82.72;54.20;;;18.60;70.90;;;;;;5073331;28;20394;-71
2021/09/21 12:16:09;;;;;;;61.60;39.63;;;18.60;72.00;;;;;;5052269;28;20052;-78
2021/09/21 12:18:36;;;;;;;57.80;36.27;;;18.70;72.00;;;;;;5074316;28;20059;-78
2021/09/21 12:21:10;;;;;;;52.95;31.58;;;18.70;71.40;;;;;;5074665;28;20032;-81
2021/09/21 12:23:38;;;;;;;51.88;32.65;;;18.70;71.90;;;;;;5075196;28;20447;-78
2021/09/21 12:26:05;;;;;;;53.33;31.23;;;18.80;72.20;;;;;;5075077;28;20101;-77
2021/09/21 12:28:36;;;;;;;45.85;29.92;;;18.80;73.20;;;;;;5070290;28;20382;-77
2021/09/21 12:31:10;;;;;;;40.63;24.55;;;18.90;73.40;;;;;;5066597;28;20045;-77
2021/09/21 12:33:37;;;;;;;26.17;17.02;;;18.90;74.20;;;;;;5071366;28;20037;-77
2021/09/21 12:36:03;;;;;;;16.98;11.73;;;18.90;73.10;;;;;;5075056;28;20452;-76
2021/09/21 12:38:29;;;;;;;12.73;8.82;;;19.00;71.70;;;;;;5074446;28;20082;-78
2021/09/21 12:40:58;;;;;;;11.88;8.45;;;19.00;71.30;;;;;;5075043;28;20044;-79
2021/09/21 12:43:41;;;;;;;8.70;6.25;;;19.00;70.40;;;;;;5075017;28;20125;-78
2021/09/21 12:46:08;;;;;;;7.72;6.00;;;19.00;69.50;;;;;;5056958;28;20045;-77
2021/09/21 12:48:40;;;;;;;7.65;5.50;;;18.90;69.30;;;;;;5056906;28;20072;-77
2021/09/21 12:51:07;;;;;;;12.05;6.55;;;19.00;69.00;;;;;;5056920;28;20046;-78
2021/09/21 12:53:34;;;;;;;11.65;7.10;;;19.00;69.40;;;;;;5057340;28;20126;-78
2021/09/21 12:56:11;;;;;;;8.25;6.80;;;18.90;69.90;;;;;;5074038;28;20046;-78